Flight Track Log - Related Links

Times and Time Zones

All times are in EDT time to prevent confusion due to time zone crossing. See the AAL270 flight status page for this flight to view local times or setup timezone preferences in your user account.

Time Position Orientation Groundspeed Altitude Reporting Facility
EDT Latitude Longitude Course Direction KTS MPH feet Rate Location/Type
Fri 01:04:20 PM 21.3167 -157.9000 75° East 180 207 1,100  Level Honolulu Center
Fri 01:06:00 PM 21.2139 -157.5295 108° East  Level FlightAware
Fri 01:07:00 PM 21.1832 -157.3995 100° East  Level FlightAware
Fri 01:08:00 PM 21.1587 -157.2679 105° East  Level FlightAware
Fri 01:09:00 PM 21.1404 -157.1383 75° East  Level FlightAware
Fri 01:09:32 PM 21.2640 -157.5030 75° East 402 463 11,500  Level FlightAware
Fri 01:10:17 PM 21.2810 -157.4130 79° East 409 471 13,300 2,274 Climbing FlightAware
Fri 01:11:07 PM 21.3030 -157.3060 78° East 426 490 15,100 1,933 Climbing FlightAware
Fri 01:11:47 PM 21.3190 -157.2320 77° East 434 499 16,200 776 Climbing FlightAware
Fri 01:12:32 PM 21.3360 -157.1500 77° East 434 499 16,200  Level FlightAware
Fri 01:13:12 PM 21.3520 -157.0780 77° East 434 499 16,200  Level FlightAware
Fri 01:13:52 PM 21.3670 -157.0070 77° East 434 499 16,200  Level FlightAware
Fri 01:14:32 PM 21.3820 -156.9350 77° East 434 499 16,200  Level FlightAware
Fri 01:15:12 PM 21.3980 -156.8640 76° East 434 499 16,200 4,200 Level FlightAware
Fri 01:16:22 PM 21.4500 -156.6000 76° East 490 564 23,900 4,200 Climbing Honolulu Center
Fri 01:17:22 PM 21.4833 -156.4333 78° East 500 575 25,300 1,450 Climbing Honolulu Center
Fri 01:18:22 PM 21.5000 -156.3000 82° East 510 587 26,800 1,750 Climbing Honolulu Center
Fri 01:19:22 PM 21.5333 -156.1333 78° East 500 575 28,800 1,850 Climbing Honolulu Center
Fri 01:20:22 PM 21.5667 -156.0000 75° East 500 575 30,500 1,450 Climbing Honolulu Center
Fri 01:21:22 PM 21.5833 -155.8667 82° East 500 575 31,700 1,300 Climbing Honolulu Center
Fri 01:22:22 PM 21.6167 -155.7167 77° East 500 575 33,100 1,350 Climbing Honolulu Center
Fri 01:23:22 PM 21.6500 -155.5667 77° East 500 575 34,400 1,240 Climbing Honolulu Center
Fri 01:24:23 PM 21.6833 -155.4167 77° East 500 575 35,600 1,091 Climbing Honolulu Center
Fri 01:25:23 PM 21.7167 -155.2833 75° East 500 575 36,600 900 Climbing Honolulu Center
Fri 01:26:23 PM 21.7333 -155.1333 83° East 500 575 37,400 700 Climbing Honolulu Center
Fri 01:27:23 PM 21.7667 -154.9833 77° East 490 564 38,000 300 Climbing Honolulu Center
Fri 01:28:23 PM 21.8000 -154.8500 75° East 490 564 38,000  Level Honolulu Center
Fri 01:29:23 PM 21.8167 -154.7000 83° East 490 564 38,000  Level Honolulu Center
Fri 01:30:23 PM 21.8500 -154.5500 77° East 500 575 38,000  Level Honolulu Center
Fri 01:31:23 PM 21.8833 -154.4000 77° East 490 564 38,000  Level Honolulu Center
Fri 01:32:23 PM 21.9000 -154.2667 82° East 500 575 38,000  Level Honolulu Center
Fri 01:33:24 PM 21.9333 -154.1167 77° East 490 564 38,000  Level Honolulu Center
Fri 01:34:24 PM 21.9667 -153.9667 76° East 490 564 38,000  Level Honolulu Center
Fri 01:35:24 PM 21.9833 -153.8167 83° East 500 575 38,000  Level Honolulu Center
Fri 01:36:24 PM 22.0167 -153.6833 75° East 500 575 38,000  Level Honolulu Center
Fri 01:37:24 PM 22.0500 -153.5333 76° East 490 564 38,000  Level Honolulu Center
Fri 01:38:24 PM 22.0667 -153.3833 83° East 490 564 38,000  Level Honolulu Center
Fri 01:39:24 PM 22.1000 -153.2500 75° East 490 564 38,000  Level Honolulu Center
Fri 01:41:00 PM 22.1378 -153.0387 79° East  Level FlightAware
Fri 01:48:00 PM 22.2998 -152.1127 79° East  Level FlightAware
Fri 01:49:00 PM 22.3225 -151.9802 79° East  Level FlightAware
Fri 01:50:00 PM 22.3494 -151.8507 62° Northeast  Level FlightAware
Fri 01:50:32 PM 22.3500 -151.8833 62° Northeast 479 551 38,000  Level Oakland Oceanic
Fri 01:51:00 PM 22.4080 -151.7317 62° Northeast  Level FlightAware
Fri 01:52:00 PM 22.4665 -151.6127 62° Northeast  Level FlightAware
Fri 01:53:00 PM 22.5249 -151.4935 62° Northeast  Level FlightAware
Fri 01:54:00 PM 22.5832 -151.3742 62° Northeast  Level FlightAware
Fri 01:55:00 PM 22.6414 -151.2548 62° Northeast  Level FlightAware
Fri 01:56:00 PM 22.7006 -151.1330 62° Northeast  Level FlightAware
Fri 01:57:00 PM 22.9080 -150.7353 62° Northeast 479 551 38,000  Level FlightAware
Fri 01:58:00 PM 22.9695 -150.6072 63° Northeast 479 551 38,000  Level FlightAware
Fri 01:59:00 PM 23.0309 -150.4789 63° Northeast 479 551 38,000  Level FlightAware
Fri 02:00:00 PM 23.0922 -150.3506 63° Northeast 479 551 38,000  Level FlightAware
Fri 02:01:00 PM 23.1534 -150.2221 63° Northeast 479 551 38,000  Level FlightAware
Fri 02:02:00 PM 23.2144 -150.0935 63° Northeast 479 551 38,000  Level FlightAware
Fri 02:03:00 PM 23.2754 -149.9648 63° Northeast 479 551 38,000  Level FlightAware
Fri 02:04:00 PM 23.3363 -149.8359 63° Northeast 479 551 38,000  Level FlightAware
Fri 02:05:00 PM 23.3970 -149.7070 63° Northeast 479 551 38,000  Level FlightAware
Fri 02:06:00 PM 23.4577 -149.5779 63° Northeast 479 551 38,000  Level FlightAware
Fri 02:07:00 PM 23.5182 -149.4487 63° Northeast 479 551 38,000  Level FlightAware
Fri 02:08:00 PM 23.5787 -149.3194 63° Northeast 479 551 38,000  Level FlightAware
Fri 02:09:00 PM 23.6390 -149.1900 63° Northeast 479 551 38,000  Level FlightAware
Fri 02:10:00 PM 23.6993 -149.0604 63° Northeast 479 551 38,000  Level FlightAware
Fri 02:11:00 PM 23.7594 -148.9307 63° Northeast 479 551 38,000  Level FlightAware
Fri 02:12:00 PM 23.8194 -148.8009 63° Northeast 479 551 38,000  Level FlightAware
Fri 02:13:00 PM 23.8793 -148.6710 63° Northeast 479 551 38,000  Level FlightAware
Fri 02:14:00 PM 23.9391 -148.5410 63° Northeast 479 551 38,000  Level FlightAware
Fri 02:15:00 PM 23.9988 -148.4109 63° Northeast 479 551 38,000  Level FlightAware
Fri 02:16:00 PM 24.0584 -148.2806 63° Northeast 479 551 38,000  Level FlightAware
Fri 02:17:00 PM 24.1178 -148.1502 63° Northeast 479 551 38,000  Level FlightAware
Fri 02:18:00 PM 24.1772 -148.0197 64° Northeast 479 551 38,000  Level FlightAware
Fri 02:19:00 PM 24.2364 -147.8891 64° Northeast 479 551 38,000  Level FlightAware
Fri 02:20:00 PM 24.2956 -147.7583 64° Northeast 479 551 38,000  Level FlightAware
Fri 02:21:00 PM 24.3546 -147.6274 64° Northeast 479 551 38,000  Level FlightAware
Fri 02:22:00 PM 24.4135 -147.4964 64° Northeast 479 551 38,000  Level FlightAware
Fri 02:23:00 PM 24.4723 -147.3653 64° Northeast 479 551 38,000  Level FlightAware
Fri 02:24:00 PM 24.5310 -147.2341 64° Northeast 479 551 38,000  Level FlightAware
Fri 02:25:00 PM 24.5895 -147.1027 64° Northeast 479 551 38,000  Level FlightAware
Fri 02:26:00 PM 24.6480 -146.9712 64° Northeast 479 551 38,000  Level FlightAware
Fri 02:27:00 PM 24.7063 -146.8396 64° Northeast 479 551 38,000  Level FlightAware
Fri 02:28:00 PM 24.7645 -146.7079 64° Northeast 479 551 38,000  Level FlightAware
Fri 02:29:00 PM 24.8227 -146.5760 64° Northeast 479 551 38,000  Level FlightAware
Fri 02:30:00 PM 24.8806 -146.4440 64° Northeast 479 551 38,000  Level FlightAware
Fri 02:31:00 PM 24.9385 -146.3119 64° Northeast 479 551 38,000  Level FlightAware
Fri 02:32:00 PM 24.9963 -146.1797 64° Northeast 479 551 38,000  Level FlightAware
Fri 02:33:00 PM 25.0539 -146.0473 64° Northeast 479 551 38,000  Level FlightAware
Fri 02:34:00 PM 25.1115 -145.9149 64° Northeast 479 551 38,000  Level FlightAware
Fri 02:35:00 PM 25.1689 -145.7823 64° Northeast 479 551 38,000  Level FlightAware
Fri 02:36:00 PM 25.2262 -145.6495 65° Northeast 479 551 38,000  Level FlightAware
Fri 02:37:00 PM 25.2833 -145.5167 65° Northeast 479 551 38,000  Level FlightAware
Fri 02:38:00 PM 25.3390 -145.3863 65° Northeast 479 551 38,000  Level FlightAware
Fri 02:39:00 PM 25.3945 -145.2559 65° Northeast 479 551 38,000  Level FlightAware
Fri 02:39:17 PM 25.2833 -145.5167 65° Northeast 478 550 38,000  Level Oakland Oceanic
Fri 02:40:00 PM 25.4499 -145.1253 65° Northeast 479 551 38,000  Level FlightAware
Fri 02:41:00 PM 25.5052 -144.9946 65° Northeast 479 551 38,000  Level FlightAware
Fri 02:42:00 PM 25.5604 -144.8637 65° Northeast 479 551 38,000  Level FlightAware
Fri 02:43:00 PM 25.6154 -144.7328 65° Northeast 479 551 38,000  Level FlightAware
Fri 02:44:00 PM 25.6703 -144.6017 65° Northeast 479 551 38,000  Level FlightAware
Fri 02:45:00 PM 25.7341 -144.4491 65° Northeast 478 550 38,000  Level FlightAware
Fri 02:46:00 PM 25.7899 -144.3151 65° Northeast 478 550 38,000  Level FlightAware
Fri 02:47:00 PM 25.8456 -144.1810 65° Northeast 478 550 38,000  Level FlightAware
Fri 02:48:00 PM 25.9011 -144.0467 65° Northeast 478 550 38,000  Level FlightAware
Fri 02:49:00 PM 25.9566 -143.9123 65° Northeast 478 550 38,000  Level FlightAware
Fri 02:50:00 PM 26.0119 -143.7778 65° Northeast 478 550 38,000  Level FlightAware
Fri 02:51:00 PM 26.0671 -143.6432 66° East 478 550 38,000  Level FlightAware
Fri 02:52:00 PM 26.1221 -143.5084 66° East 478 550 38,000  Level FlightAware
Fri 02:53:00 PM 26.1771 -143.3735 66° East 478 550 38,000  Level FlightAware
Fri 02:54:00 PM 26.2319 -143.2385 66° East 478 550 38,000  Level FlightAware
Fri 02:55:00 PM 26.2866 -143.1033 66° East 478 550 38,000  Level FlightAware
Fri 02:56:00 PM 26.3411 -142.9680 66° East 478 550 38,000  Level FlightAware
Fri 02:57:00 PM 26.3955 -142.8326 66° East 478 550 38,000  Level FlightAware
Fri 02:58:00 PM 26.4498 -142.6971 66° East 478 550 38,000  Level FlightAware
Fri 02:59:00 PM 26.5040 -142.5614 66° East 478 550 38,000  Level FlightAware
Fri 03:00:00 PM 26.5580 -142.4257 66° East 478 550 38,000  Level FlightAware
Fri 03:01:00 PM 26.6119 -142.2897 66° East 478 550 38,000  Level FlightAware
Fri 03:02:00 PM 26.6657 -142.1537 66° East 478 550 38,000  Level FlightAware
Fri 03:03:00 PM 26.7194 -142.0175 66° East 478 550 38,000  Level FlightAware
Fri 03:04:00 PM 26.7729 -141.8812 66° East 478 550 38,000  Level FlightAware
Fri 03:05:00 PM 26.8263 -141.7448 66° East 478 550 38,000  Level FlightAware
Fri 03:06:00 PM 26.8796 -141.6082 66° East 478 550 38,000  Level FlightAware
Fri 03:07:00 PM 26.9327 -141.4716 66° East 478 550 38,000  Level FlightAware
Fri 03:08:00 PM 26.9857 -141.3347 67° East 478 550 38,000  Level FlightAware
Fri 03:09:00 PM 27.0386 -141.1978 67° East 478 550 38,000  Level FlightAware
Fri 03:10:00 PM 27.0913 -141.0607 67° East 478 550 38,000  Level FlightAware
Fri 03:11:00 PM 27.1439 -140.9235 67° East 478 550 38,000  Level FlightAware
Fri 03:12:00 PM 27.1964 -140.7862 67° East 478 550 38,000  Level FlightAware
Fri 03:13:00 PM 27.2487 -140.6487 67° East 478 550 38,000  Level FlightAware
Fri 03:14:00 PM 27.3009 -140.5112 67° East 478 550 38,000  Level FlightAware
Fri 03:15:00 PM 27.3530 -140.3734 67° East 478 550 38,000  Level FlightAware
Fri 03:16:00 PM 27.4049 -140.2356 67° East 478 550 38,000  Level FlightAware
Fri 03:17:00 PM 27.4567 -140.0976 67° East 478 550 38,000  Level FlightAware
Fri 03:18:00 PM 27.5084 -139.9595 67° East 478 550 38,000  Level FlightAware
Fri 03:19:00 PM 27.5599 -139.8213 67° East 478 550 38,000  Level FlightAware
Fri 03:20:00 PM 27.6113 -139.6829 67° East 478 550 38,000  Level FlightAware
Fri 03:21:00 PM 27.6625 -139.5444 67° East 478 550 38,000  Level FlightAware
Fri 03:22:00 PM 27.7136 -139.4058 67° East 478 550 38,000  Level FlightAware
Fri 03:23:00 PM 27.7646 -139.2670 67° East 478 550 38,000  Level FlightAware
Fri 03:24:00 PM 27.8154 -139.1282 68° East 478 550 38,000  Level FlightAware
Fri 03:25:00 PM 27.8661 -138.9891 68° East 478 550 38,000  Level FlightAware
Fri 03:26:00 PM 27.9167 -138.8500 68° East 478 550 38,000  Level FlightAware
Fri 03:27:00 PM 27.9648 -138.7169 68° East 478 550 38,000  Level FlightAware
Fri 03:28:00 PM 28.0128 -138.5837 68° East 478 550 38,000  Level FlightAware
Fri 03:29:00 PM 28.0607 -138.4504 68° East 478 550 38,000  Level FlightAware
Fri 03:30:00 PM 28.1085 -138.3170 68° East 478 550 38,000  Level FlightAware
Fri 03:30:17 PM 27.9167 -138.8500 68° East 467 537 38,000  Level Oakland Oceanic
Fri 03:31:00 PM 28.1561 -138.1834 68° East 478 550 38,000  Level FlightAware
Fri 03:32:00 PM 28.2036 -138.0497 68° East 478 550 38,000  Level FlightAware
Fri 03:33:00 PM 28.2510 -137.9159 68° East 478 550 38,000  Level FlightAware
Fri 03:34:00 PM 28.2983 -137.7820 68° East 478 550 38,000  Level FlightAware
Fri 03:35:00 PM 28.3454 -137.6480 68° East 478 550 38,000  Level FlightAware
Fri 03:36:00 PM 28.3535 -137.6248 68° East 467 537 38,000  Level FlightAware
Fri 03:37:00 PM 28.4014 -137.4880 68° East 467 537 38,000  Level FlightAware
Fri 03:38:00 PM 28.4491 -137.3512 68° East 467 537 38,000  Level FlightAware
Fri 03:39:00 PM 28.4967 -137.2142 68° East 467 537 38,000  Level FlightAware
Fri 03:40:00 PM 28.5441 -137.0770 69° East 467 537 38,000  Level FlightAware
Fri 03:41:00 PM 28.5915 -136.9398 69° East 467 537 38,000  Level FlightAware
Fri 03:42:00 PM 28.6386 -136.8024 69° East 467 537 38,000  Level FlightAware
Fri 03:43:00 PM 28.6857 -136.6649 69° East 467 537 38,000  Level FlightAware
Fri 03:44:00 PM 28.7326 -136.5273 69° East 467 537 38,000  Level FlightAware
Fri 03:45:00 PM 28.7793 -136.3896 69° East 467 537 38,000  Level FlightAware
Fri 03:46:00 PM 28.8260 -136.2517 69° East 467 537 38,000  Level FlightAware
Fri 03:47:00 PM 28.8724 -136.1137 69° East 467 537 38,000  Level FlightAware
Fri 03:48:00 PM 28.9188 -135.9756 69° East 467 537 38,000  Level FlightAware
Fri 03:49:00 PM 28.9650 -135.8374 69° East 467 537 38,000  Level FlightAware
Fri 03:50:00 PM 29.0110 -135.6990 69° East 467 537 38,000  Level FlightAware
Fri 03:51:00 PM 29.0569 -135.5605 69° East 467 537 38,000  Level FlightAware
Fri 03:52:00 PM 29.1027 -135.4219 69° East 467 537 38,000  Level FlightAware
Fri 03:53:00 PM 29.1483 -135.2832 69° East 467 537 38,000  Level FlightAware
Fri 03:54:00 PM 29.1938 -135.1444 69° East 467 537 38,000  Level FlightAware
Fri 03:55:00 PM 29.2392 -135.0054 70° East 467 537 38,000  Level FlightAware
Fri 03:56:00 PM 29.2844 -134.8663 70° East 467 537 38,000  Level FlightAware
Fri 03:57:00 PM 29.3294 -134.7271 70° East 467 537 38,000  Level FlightAware
Fri 03:58:00 PM 29.3743 -134.5877 70° East 467 537 38,000  Level FlightAware
Fri 03:59:00 PM 29.4191 -134.4483 70° East 467 537 38,000  Level FlightAware
Fri 04:00:00 PM 29.4637 -134.3087 70° East 467 537 38,000  Level FlightAware
Fri 04:01:00 PM 29.5082 -134.1690 70° East 467 537 38,000  Level FlightAware
Fri 04:02:00 PM 29.5525 -134.0291 70° East 467 537 38,000  Level FlightAware
Fri 04:03:00 PM 29.5967 -133.8892 70° East 467 537 38,000  Level FlightAware
Fri 04:04:00 PM 29.6407 -133.7491 70° East 467 537 38,000  Level FlightAware
Fri 04:05:00 PM 29.6846 -133.6089 70° East 467 537 38,000  Level FlightAware
Fri 04:06:00 PM 29.7283 -133.4686 70° East 467 537 38,000  Level FlightAware
Fri 04:07:00 PM 29.7719 -133.3282 70° East 467 537 38,000  Level FlightAware
Fri 04:08:00 PM 29.8154 -133.1876 70° East 467 537 38,000  Level FlightAware
Fri 04:09:00 PM 29.8587 -133.0469 71° East 467 537 38,000  Level FlightAware
Fri 04:10:00 PM 29.9018 -132.9061 71° East 467 537 38,000  Level FlightAware
Fri 04:11:00 PM 29.9448 -132.7652 71° East 467 537 38,000  Level FlightAware
Fri 04:12:00 PM 29.9877 -132.6241 71° East 467 537 38,000  Level FlightAware
Fri 04:13:00 PM 30.0303 -132.4829 71° East 467 537 38,000  Level FlightAware
Fri 04:14:00 PM 30.0729 -132.3416 71° East 467 537 38,000  Level FlightAware
Fri 04:15:00 PM 30.1153 -132.2002 71° East 467 537 38,000  Level FlightAware
Fri 04:16:00 PM 30.1575 -132.0587 71° East 467 537 38,000  Level FlightAware
Fri 04:17:00 PM 30.1996 -131.9170 71° East 467 537 38,000  Level FlightAware
Fri 04:18:00 PM 30.2416 -131.7752 71° East 467 537 38,000  Level FlightAware
Fri 04:19:00 PM 30.2833 -131.6333 71° East 467 537 38,000  Level FlightAware
Fri 04:20:00 PM 30.3252 -131.4915 71° East 467 537 38,000  Level FlightAware
Fri 04:21:00 PM 30.3670 -131.3495 71° East 467 537 38,000  Level FlightAware
Fri 04:22:00 PM 30.4085 -131.2074 71° East 467 537 38,000  Level FlightAware
Fri 04:22:38 PM 30.2833 -131.6333 71° East 458 527 38,000  Level Oakland Oceanic
Fri 04:23:00 PM 30.4500 -131.0652 71° East 467 537 38,000  Level FlightAware
Fri 04:24:00 PM 30.4912 -130.9228 71° East 467 537 38,000  Level FlightAware
Fri 04:25:00 PM 30.5324 -130.7803 72° East 467 537 38,000  Level FlightAware
Fri 04:26:00 PM 30.5733 -130.6378 72° East 467 537 38,000  Level FlightAware
Fri 04:27:00 PM 30.6141 -130.4951 72° East 467 537 38,000  Level FlightAware
Fri 04:28:00 PM 30.6548 -130.3522 72° East 467 537 38,000  Level FlightAware
Fri 04:29:00 PM 30.6479 -130.3765 72° East 458 527 38,000  Level FlightAware
Fri 04:30:00 PM 30.6877 -130.2363 72° East 458 527 38,000  Level FlightAware
Fri 04:31:00 PM 30.7273 -130.0959 72° East 458 527 38,000  Level FlightAware
Fri 04:32:00 PM 30.7667 -129.9555 72° East 458 527 38,000  Level FlightAware
Fri 04:33:00 PM 30.8060 -129.8149 72° East 458 527 38,000  Level FlightAware
Fri 04:34:00 PM 30.8452 -129.6742 72° East 458 527 38,000  Level FlightAware
Fri 04:35:00 PM 30.8842 -129.5334 72° East 458 527 38,000  Level FlightAware
Fri 04:36:00 PM 30.9230 -129.3925 72° East 458 527 38,000  Level FlightAware
Fri 04:37:00 PM 30.9617 -129.2514 72° East 458 527 38,000  Level FlightAware
Fri 04:38:00 PM 31.0003 -129.1103 72° East 458 527 38,000  Level FlightAware
Fri 04:39:00 PM 31.0387 -128.9690 72° East 458 527 38,000  Level FlightAware
Fri 04:40:00 PM 31.0769 -128.8277 73° East 458 527 38,000  Level FlightAware
Fri 04:41:00 PM 31.1150 -128.6862 73° East 458 527 38,000  Level FlightAware
Fri 04:42:00 PM 31.1529 -128.5446 73° East 458 527 38,000  Level FlightAware
Fri 04:43:00 PM 31.1907 -128.4029 73° East 458 527 38,000  Level FlightAware
Fri 04:44:00 PM 31.2283 -128.2610 73° East 458 527 38,000  Level FlightAware
Fri 04:45:00 PM 31.2658 -128.1191 73° East 458 527 38,000  Level FlightAware
Fri 04:46:00 PM 31.3031 -127.9771 73° East 458 527 38,000  Level FlightAware
Fri 04:47:00 PM 31.3402 -127.8349 73° East 458 527 38,000  Level FlightAware
Fri 04:48:00 PM 31.3772 -127.6926 73° East 458 527 38,000  Level FlightAware
Fri 04:49:00 PM 31.4140 -127.5502 73° East 458 527 38,000  Level FlightAware
Fri 04:50:00 PM 31.4507 -127.4077 73° East 458 527 38,000  Level FlightAware
Fri 04:51:00 PM 31.4872 -127.2651 73° East 458 527 38,000  Level FlightAware
Fri 04:52:00 PM 31.5236 -127.1224 73° East 458 527 38,000  Level FlightAware
Fri 04:53:00 PM 31.5598 -126.9796 73° East 458 527 38,000  Level FlightAware
Fri 04:54:00 PM 31.5958 -126.8366 74° East 458 527 38,000  Level FlightAware
Fri 04:55:00 PM 31.6317 -126.6936 74° East 458 527 38,000  Level FlightAware
Fri 04:56:00 PM 31.6674 -126.5504 74° East 458 527 38,000  Level FlightAware
Fri 04:57:00 PM 31.7030 -126.4071 74° East 458 527 38,000  Level FlightAware
Fri 04:58:00 PM 31.7384 -126.2637 74° East 458 527 38,000  Level FlightAware
Fri 04:59:00 PM 31.7736 -126.1202 74° East 458 527 38,000  Level FlightAware
Fri 05:00:00 PM 31.8087 -125.9766 74° East 458 527 38,000  Level FlightAware
Fri 05:01:00 PM 31.8437 -125.8329 74° East 458 527 38,000  Level FlightAware
Fri 05:02:00 PM 31.8784 -125.6891 74° East 458 527 38,000  Level FlightAware
Fri 05:03:00 PM 31.9130 -125.5452 74° East 458 527 38,000  Level FlightAware
Fri 05:04:00 PM 31.9475 -125.4011 74° East 458 527 38,000  Level FlightAware
Fri 05:05:00 PM 31.9817 -125.2570 74° East 458 527 38,000  Level FlightAware
Fri 05:06:00 PM 32.0158 -125.1127 74° East 458 527 38,000  Level FlightAware
Fri 05:07:00 PM 32.0498 -124.9684 75° East 458 527 38,000  Level FlightAware
Fri 05:08:00 PM 32.0836 -124.8239 75° East 458 527 38,000  Level FlightAware
Fri 05:09:00 PM 32.1172 -124.6794 75° East 458 527 38,000  Level FlightAware
Fri 05:10:00 PM 32.1506 -124.5347 75° East 458 527 38,000  Level FlightAware
Fri 05:11:00 PM 32.1839 -124.3899 75° East 458 527 38,000  Level FlightAware
Fri 05:12:00 PM 32.2170 -124.2450 75° East 458 527 38,000  Level FlightAware
Fri 05:13:00 PM 32.2500 -124.1000 46° Northeast 458 527 38,000  Level FlightAware
Fri 05:13:42 PM 32.2247 -124.0967 46° Northeast 461 531 38,000  Level Los Center
Fri 05:14:00 PM 32.3455 -123.9848 46° Northeast 458 527 38,000  Level FlightAware
Fri 05:14:44 PM 32.3253 -123.9564 50° Northeast 466 536 38,000  Level Los Center
Fri 05:15:00 PM 32.4409 -123.8694 46° Northeast 458 527 38,000  Level FlightAware
Fri 05:15:46 PM 32.4194 -123.8444 45° Northeast 467 537 38,000  Level Los Center
Fri 05:16:00 PM 32.5362 -123.7537 46° Northeast 458 527 38,000  Level FlightAware
Fri 05:16:49 PM 32.4742 -123.7089 64° Northeast 462 532 38,000  Level Los Center
Fri 05:17:00 PM 32.6314 -123.6378 46° Northeast 458 527 38,000  Level FlightAware
Fri 05:17:50 PM 32.5236 -123.5653 68° East 467 537 38,000  Level Los Center
Fri 05:18:00 PM 32.7265 -123.5217 46° Northeast 458 527 38,000  Level FlightAware
Fri 05:18:52 PM 32.5767 -123.4242 66° East 470 541 38,000  Level Los Center
Fri 05:19:55 PM 32.6292 -123.2844 66° East 468 539 38,000  Level Los Center
Fri 05:20:57 PM 32.6928 -123.1164 66° East 467 537 38,000  Level Los Center
Fri 05:21:59 PM 32.7453 -122.9742 66° East 470 541 38,000  Level Los Center
Fri 05:23:01 PM 32.7989 -122.8339 66° East 468 539 38,000  Level Los Center
Fri 05:24:03 PM 32.8486 -122.6908 67° East 469 540 38,000  Level Los Center
Fri 05:25:05 PM 32.9008 -122.5481 66° East 472 543 38,000 -290 Level Los Center
Fri 05:26:07 PM 32.9531 -122.4075 66° East 469 540 37,400 -1,258 Descending Los Center
Fri 05:27:09 PM 33.0169 -122.2353 66° East 474 545 35,400 -1,645 Descending Los Center
Fri 05:28:11 PM 33.0767 -122.0992 62° Northeast 468 539 34,000 -1,161 Descending Los Center
Fri 05:29:13 PM 33.1289 -121.9506 67° East 484 557 33,000 -149 Descending Los Center
Fri 05:34:53 PM 33.4030 -121.1050 67° East 491 565 33,000  Level FlightAware
Fri 05:35:38 PM 33.4400 -120.9990 67° East 491 565 33,000  Level FlightAware
Fri 05:36:18 PM 33.4760 -120.8930 68° East 495 570 33,000  Level FlightAware
Fri 05:36:58 PM 33.5090 -120.8000 67° East 496 571 33,000  Level FlightAware
Fri 05:37:38 PM 33.5390 -120.7130 68° East 496 571 33,000  Level FlightAware
Fri 05:38:18 PM 33.5700 -120.6270 67° East 496 571 33,000  Level FlightAware
Fri 05:38:58 PM 33.6000 -120.5410 67° East 496 571 33,000  Level FlightAware
Fri 05:39:48 PM 33.6390 -120.4330 67° East 496 571 33,000  Level FlightAware
Fri 05:40:28 PM 33.6690 -120.3470 67° East 496 571 33,000  Level FlightAware
Fri 05:41:08 PM 33.6990 -120.2610 67° East 496 571 33,000  Level FlightAware
Fri 05:41:48 PM 33.7300 -120.1740 67° East 496 571 33,000  Level FlightAware
Fri 05:42:28 PM 33.7600 -120.0880 67° East 496 571 33,000  Level FlightAware
Fri 05:43:08 PM 33.7910 -120.0010 67° East 496 571 33,000 -9,318 Level FlightAware
Fri 05:43:53 PM 33.8600 -119.7480 72° East 448 516 19,800 -10,235 Descending FlightAware
Fri 05:44:33 PM 33.8920 -119.6510 68° East 431 496 18,500 -1,425 Descending FlightAware
Fri 05:45:13 PM 33.9190 -119.5700 68° East 428 493 17,900 -1,600 Descending FlightAware
Fri 05:46:03 PM 33.9580 -119.4500 69° East 419 482 16,100 -2,200 Descending FlightAware
Fri 05:46:43 PM 33.9840 -119.3700 69° East 407 468 14,600 -2,329 Descending FlightAware
Fri 05:47:28 PM 34.0130 -119.2710 71° East 393 452 12,800 -2,325 Descending FlightAware
Fri 05:48:03 PM 34.0170 -119.1990 86° East 384 442 11,500 -1,200 Descending FlightAware
Fri 05:48:43 PM 34.0140 -119.1210 93° East 382 440 11,300 -300 Descending FlightAware
Fri 05:49:23 PM 34.0090 -119.0320 94° East 378 435 11,100 -133 Descending FlightAware
Fri 05:50:13 PM 34.0040 -118.9260 93° East 379 436 11,100 -379 Level FlightAware
Fri 05:50:58 PM 34.0000 -118.8310 93° East 378 435 10,500 -825 Descending FlightAware
Fri 05:51:33 PM 33.9960 -118.7570 94° East 370 426 10,000 -400 Descending FlightAware
Fri 05:52:13 PM 33.9920 -118.6750 93° East 337 388 10,000 -1,088 Level FlightAware
Fri 05:55:08 PM 33.9860 -118.4000 91° East 260 299 6,100 -1,153 Descending FlightAware
Fri 06:00:43 PM 33.9190 -118.4130 189° South 126 145 200 -1,057 Descending FlightAware

Login

Don't have an account? Register now (free) for customized features, flight alerts, and more!